KMZZ/MZZ METAR and TAF weather

Enter ICAO airport designator
Station Type Date Time Source
KMZZ METAR 2022/06/25 21:55 UTC NOAA

KMZZ 252155Z AUTO 19008KT 10SM CLR 27/14 A2998 RMK AO2 T02670136


Station Type Date Time Source
KMZZ Decoded METAR 2022/06/25 21:55 UTC NOAA

Station name not available
Jun 25, 2022 - 05:55 PM EDT / 2022.06.25 2155 UTC
Wind: from the S (190 degrees) at 9 MPH (8 KT):0
Visibility: 10 mile(s):0
Sky conditions: clear
Temperature: 80.1 F (26.7 C)
Dew Point: 56.5 F (13.6 C)
Relative Humidity: 44%
Pressure (altimeter): 29.98 in. Hg (1015 hPa)
ob: KMZZ 252155Z AUTO 19008KT 10SM CLR 27/14 A2998 RMK AO2 T02670136
cycle: 22

Station Type Date Time Source
KMZZ TAF UTC NOAA

Error!

Example: see airport list